Weather at Malo Konjari Sport Airfield

Public forecast

Using degrees Celsius for public forecast. Weather courtesy of forecast.io.

Closest aviation weather report (METAR) to Malo Konjari Sport Airfield

Closest report is Ohrid St. Paul the Apostle Airport, 33.2 nm (61.5 km) WSW. Retrieved 2022/08/09 07:00 UTC (24 minutes ago):

LWOH 090700Z 11001KT 9999 FEW050 25/11 Q1018

Closest aviation forecast (TAF) to Malo Konjari Sport Airfield

Closest forecast is Ohrid St. Paul the Apostle Airport, 33.2 nm (61.5 km) WSW. Retrieved 2022/08/09 06:10 UTC (1 hour ago):

TAF LWOH 090530Z 0906/1006 VRB02KT 9999 FEW090 TEMPO 0912/0918 12008KT SCT050